Terminal Aerodrome Forecast
Issued by NWS

Home | Current Version | Previous Version | Text Only | Print | Product List | Glossary On
Versions: 1 2 3 4 5 6 7 8 9 10 11 12 13
962
FTUS43 KPAH 211734
TAFCGI
TAF
KCGI 211734Z 2118/2218 22009KT P6SM SCT250
     FM212000 26008KT P6SM FEW060 BKN180
     FM212300 33007KT P6SM FEW040 SCT100
     FM220100 35013G20KT P6SM SKC
     FM220900 36008KT P6SM SCT250=

USA.gov is the U.S. government's official web portal to all federal, state and local government web resources and services.